createdAt,value
2022-09-25T00:01:59.083Z,67.24
2022-09-25T00:04:30.527Z,67.69
2022-09-25T00:07:00.310Z,67.17
2022-09-25T00:09:30.146Z,67.14
2022-09-25T00:12:00.995Z,67.06
2022-09-25T00:14:31.098Z,66.87
2022-09-25T00:17:00.938Z,67.19
2022-09-25T00:19:49.761Z,67.92
2022-09-25T00:22:20.374Z,67.72
2022-09-25T00:24:50.608Z,67.77
2022-09-25T00:27:20.649Z,68.31
2022-09-25T00:29:50.570Z,68.22
2022-09-25T00:32:23.720Z,67.89
2022-09-25T00:34:55.012Z,66.75
2022-09-25T00:37:24.841Z,66.82
2022-09-25T00:39:55.107Z,66.60
2022-09-25T00:42:24.916Z,66.63
2022-09-25T00:45:01.086Z,67.06
2022-09-25T00:47:58.750Z,67.31
2022-09-25T00:50:35.176Z,67.40
2022-09-25T00:53:10.697Z,67.60
2022-09-25T00:55:44.228Z,67.75
2022-09-25T00:58:18.056Z,66.93
2022-09-25T01:00:48.303Z,67.39
2022-09-25T01:03:19.095Z,67.62
2022-09-25T01:05:51.100Z,67.89
2022-09-25T01:08:24.992Z,67.14
2022-09-25T01:10:55.759Z,67.84
2022-09-25T01:13:25.977Z,68.45
2022-09-25T01:16:00.624Z,68.94
2022-09-25T01:18:45.329Z,68.18
2022-09-25T01:21:31.720Z,67.96
2022-09-25T01:24:24.946Z,67.89
2022-09-25T01:27:21.120Z,67.48
2022-09-25T01:29:58.656Z,67.72
2022-09-25T01:32:34.517Z,68.72
2022-09-25T01:35:09.809Z,68.45
2022-09-25T01:37:45.537Z,68.21
2022-09-25T01:40:23.396Z,67.94
2022-09-25T01:43:00.838Z,68.62
2022-09-25T01:45:37.876Z,68.11
2022-09-25T01:48:10.593Z,67.53
2022-09-25T01:50:45.533Z,67.82
2022-09-25T01:53:21.500Z,67.57
2022-09-25T01:55:57.777Z,67.59
2022-09-25T01:58:32.941Z,68.38
2022-09-25T02:01:09.101Z,68.13
2022-09-25T02:03:44.228Z,69.02
2022-09-25T02:06:19.784Z,68.04
2022-09-25T02:08:54.333Z,68.02
2022-09-25T02:11:29.588Z,68.16
2022-09-25T02:14:05.628Z,68.30
2022-09-25T02:16:43.585Z,68.53
2022-09-25T02:19:34.429Z,68.08
2022-09-25T02:22:09.069Z,68.94
2022-09-25T02:24:44.449Z,68.50
2022-09-25T02:27:15.707Z,68.44
2022-09-25T02:29:45.773Z,68.52
2022-09-25T02:32:20.136Z,68.83
2022-09-25T02:34:50.063Z,69.03
2022-09-25T02:37:20.430Z,68.65
2022-09-25T02:39:53.453Z,69.07
2022-09-25T02:42:33.813Z,68.86
2022-09-25T02:45:13.442Z,69.34
2022-09-25T02:47:58.415Z,68.64
2022-09-25T02:50:34.239Z,68.07
2022-09-25T02:53:11.088Z,67.72
2022-09-25T02:55:46.393Z,68.46
2022-09-25T02:58:19.985Z,67.91
2022-09-25T03:00:53.405Z,68.55
2022-09-25T03:03:28.053Z,68.11
2022-09-25T03:05:58.995Z,67.73
2022-09-25T03:08:41.932Z,67.92
2022-09-25T03:11:14.473Z,68.29
2022-09-25T03:13:45.495Z,68.36
2022-09-25T03:16:20.372Z,68.45
2022-09-25T03:18:51.873Z,68.74
2022-09-25T03:21:21.973Z,68.94
2022-09-25T03:23:51.737Z,68.74
2022-09-25T03:26:21.536Z,69.13
2022-09-25T03:28:51.659Z,70.08
2022-09-25T03:31:22.227Z,69.93
2022-09-25T03:33:53.634Z,68.87
2022-09-25T03:36:25.070Z,68.76
2022-09-25T03:38:58.972Z,68.81
2022-09-25T03:41:31.003Z,68.82
2022-09-25T03:44:01.304Z,68.77
2022-09-25T03:46:33.563Z,68.21
2022-09-25T03:49:05.396Z,69.13
2022-09-25T03:51:35.634Z,69.05
2022-09-25T03:54:05.713Z,68.44
2022-09-25T03:56:35.625Z,69.66
2022-09-25T03:59:05.423Z,68.92
2022-09-25T04:01:37.053Z,68.18
2022-09-25T04:04:08.828Z,67.31
2022-09-25T04:06:38.783Z,69.55
2022-09-25T04:09:08.733Z,69.73
2022-09-25T04:11:39.064Z,69.07
2022-09-25T04:14:08.900Z,68.37
2022-09-25T04:16:39.131Z,68.63
2022-09-25T04:19:11.393Z,68.50
2022-09-25T04:21:41.398Z,68.62
2022-09-25T04:24:29.231Z,68.11
2022-09-25T04:26:59.241Z,68.26
2022-09-25T04:29:29.155Z,67.39
2022-09-25T04:32:16.230Z,67.19
2022-09-25T04:34:47.807Z,66.86
2022-09-25T04:37:17.629Z,68.24
2022-09-25T04:39:47.976Z,68.91
2022-09-25T04:42:18.281Z,68.26
2022-09-25T04:44:48.045Z,68.46
2022-09-25T04:47:18.118Z,67.98
2022-09-25T04:49:49.671Z,68.09
2022-09-25T04:52:20.654Z,69.56
2022-09-25T04:54:50.474Z,69.05
2022-09-25T04:57:39.099Z,67.38
2022-09-25T05:00:19.349Z,67.17
2022-09-25T05:02:49.671Z,66.69
2022-09-25T05:05:21.029Z,65.83
2022-09-25T05:07:54.206Z,65.49
2022-09-25T05:10:24.916Z,65.20
2022-09-25T05:12:56.344Z,64.80
2022-09-25T05:15:26.671Z,64.55
2022-09-25T05:18:02.885Z,64.26
2022-09-25T05:20:36.142Z,64.65
2022-09-25T05:23:06.116Z,64.58
2022-09-25T05:25:36.275Z,63.78
2022-09-25T05:28:06.279Z,63.91
2022-09-25T05:30:37.582Z,63.30
2022-09-25T05:33:07.746Z,63.16
2022-09-25T05:35:38.929Z,62.33
2022-09-25T05:38:09.036Z,62.44
2022-09-25T05:40:40.181Z,62.48
2022-09-25T05:43:10.180Z,62.00
2022-09-25T05:45:39.927Z,61.94
2022-09-25T05:48:10.560Z,61.94
2022-09-25T05:50:41.681Z,61.78
2022-09-25T05:53:11.548Z,61.92
2022-09-25T05:55:41.433Z,61.42
2022-09-25T05:58:11.184Z,61.07
2022-09-25T06:00:41.000Z,60.81
2022-09-25T06:03:11.065Z,60.43
2022-09-25T06:05:42.609Z,59.69
2022-09-25T06:08:12.981Z,59.89
2022-09-25T06:10:43.685Z,59.80
2022-09-25T06:13:14.981Z,60.08
2022-09-25T06:15:45.208Z,59.88
2022-09-25T06:18:15.565Z,59.65
2022-09-25T06:20:49.128Z,59.36
2022-09-25T06:23:20.048Z,58.95
2022-09-25T06:25:50.308Z,58.45
2022-09-25T06:28:20.362Z,58.16
2022-09-25T06:30:50.345Z,58.45
2022-09-25T06:33:20.322Z,57.66
2022-09-25T06:35:51.488Z,57.34
2022-09-25T06:38:21.389Z,56.24
2022-09-25T06:40:51.391Z,56.36
2022-09-25T06:43:21.369Z,55.96
2022-09-25T06:45:51.501Z,55.92
2022-09-25T06:48:22.170Z,55.36
2022-09-25T06:50:55.702Z,55.80
2022-09-25T06:53:26.869Z,55.37
2022-09-25T06:55:58.485Z,54.65
2022-09-25T06:58:30.388Z,54.74
2022-09-25T07:01:09.079Z,54.20
2022-09-25T07:03:47.733Z,54.94
2022-09-25T07:06:26.148Z,54.39
2022-09-25T07:08:57.177Z,54.26
2022-09-25T07:11:29.168Z,53.06
2022-09-25T07:13:59.453Z,53.23
2022-09-25T07:16:34.465Z,53.03
2022-09-25T07:19:04.541Z,53.21
2022-09-25T07:21:35.827Z,53.00
2022-09-25T07:24:06.025Z,52.45
2022-09-25T07:26:39.782Z,53.08
2022-09-25T07:29:12.789Z,52.52
2022-09-25T07:31:44.522Z,51.85
2022-09-25T07:34:15.368Z,52.77
2022-09-25T07:36:47.539Z,52.37
2022-09-25T07:39:18.718Z,52.24
2022-09-25T07:41:49.132Z,51.94
2022-09-25T07:44:38.345Z,51.38
2022-09-25T07:47:10.791Z,50.56
2022-09-25T07:49:41.190Z,51.04
2022-09-25T07:52:14.061Z,50.28
2022-09-25T07:54:44.197Z,50.60
2022-09-25T07:57:14.626Z,49.89
2022-09-25T07:59:45.438Z,49.92
2022-09-25T08:02:15.734Z,49.45
2022-09-25T08:04:45.960Z,49.93
2022-09-25T08:07:18.684Z,50.41
2022-09-25T08:09:48.693Z,49.32
2022-09-25T08:12:18.852Z,49.42
2022-09-25T08:14:48.848Z,49.60
2022-09-25T08:17:19.083Z,48.40
2022-09-25T08:19:51.899Z,47.92
2022-09-25T08:22:23.401Z,48.48
2022-09-25T08:24:53.734Z,49.19
2022-09-25T08:27:23.819Z,48.12
2022-09-25T08:29:53.864Z,47.91
2022-09-25T08:32:26.548Z,47.42
2022-09-25T08:35:01.626Z,48.10
2022-09-25T08:37:33.216Z,48.46
2022-09-25T08:40:03.677Z,48.58
2022-09-25T08:42:38.280Z,48.68
2022-09-25T08:45:37.264Z,48.32
2022-09-25T08:48:27.220Z,49.34
2022-09-25T08:50:57.554Z,49.34
2022-09-25T08:53:29.099Z,50.92
2022-09-25T08:56:17.879Z,51.42
2022-09-25T08:58:53.348Z,51.46
2022-09-25T09:01:27.237Z,51.57
2022-09-25T09:04:05.751Z,51.73
2022-09-25T09:06:38.995Z,51.70
2022-09-25T09:09:16.142Z,51.14
2022-09-25T09:11:52.668Z,51.25
2022-09-25T09:14:23.743Z,52.12
2022-09-25T09:17:01.421Z,51.96
2022-09-25T09:19:31.474Z,51.67
2022-09-25T09:22:10.714Z,51.61
2022-09-25T09:24:55.037Z,51.89
2022-09-25T09:27:52.136Z,51.99
2022-09-25T09:30:28.471Z,51.64
2022-09-25T09:33:18.479Z,51.49
2022-09-25T09:36:00.173Z,50.93
2022-09-25T09:38:39.692Z,50.76
2022-09-25T09:41:35.273Z,50.36
2022-09-25T09:44:20.394Z,49.68
2022-09-25T09:46:59.136Z,49.69
2022-09-25T09:49:34.405Z,49.05
2022-09-25T09:52:10.668Z,49.03
2022-09-25T09:54:46.266Z,48.56
2022-09-25T09:57:23.314Z,48.11
2022-09-25T10:00:04.402Z,48.20
2022-09-25T10:02:40.016Z,48.44
2022-09-25T10:05:28.824Z,48.62
2022-09-25T10:07:59.063Z,48.92
2022-09-25T10:10:35.730Z,48.86
2022-09-25T10:13:16.524Z,48.79
2022-09-25T10:15:51.382Z,48.59
2022-09-25T10:18:23.970Z,48.21
2022-09-25T10:21:04.126Z,48.54
2022-09-25T10:23:40.128Z,48.29
2022-09-25T10:26:26.506Z,47.71
2022-09-25T10:28:59.822Z,45.86
2022-09-25T10:31:33.991Z,45.40
2022-09-25T10:34:07.122Z,44.73
2022-09-25T10:36:40.678Z,44.69
2022-09-25T10:39:46.958Z,44.59
2022-09-25T10:42:38.910Z,42.84
2022-09-25T10:45:31.199Z,42.45
2022-09-25T10:48:18.625Z,41.94
2022-09-25T10:51:08.162Z,42.32
2022-09-25T10:53:38.363Z,40.64
2022-09-25T10:56:12.714Z,39.51
2022-09-25T10:58:46.413Z,39.56
2022-09-25T11:01:18.662Z,39.94
2022-09-25T11:03:53.824Z,38.76
2022-09-25T11:06:27.026Z,38.92
2022-09-25T11:09:08.096Z,39.60
2022-09-25T11:11:41.216Z,39.96
2022-09-25T11:14:22.737Z,39.90
2022-09-25T11:16:57.629Z,39.56
2022-09-25T11:19:30.199Z,40.36
2022-09-25T11:22:17.954Z,40.30
2022-09-25T11:25:02.919Z,39.23
2022-09-25T11:27:38.136Z,39.88
2022-09-25T11:30:13.295Z,40.60
2022-09-25T11:32:53.001Z,41.06
2022-09-25T11:35:44.984Z,39.69
2022-09-25T11:38:43.788Z,40.18
2022-09-25T11:41:23.378Z,40.15
2022-09-25T11:44:03.358Z,40.34
2022-09-25T11:46:42.923Z,39.79
2022-09-25T11:49:22.792Z,37.37
2022-09-25T11:52:37.466Z,36.70
2022-09-25T11:55:32.088Z,37.12
2022-09-25T11:58:11.493Z,36.40
2022-09-25T12:00:47.178Z,35.99
2022-09-25T12:03:44.525Z,36.96
2022-09-25T12:06:38.854Z,37.37
2022-09-25T12:09:23.635Z,36.18
2022-09-25T12:12:03.544Z,36.19
2022-09-25T12:14:43.504Z,35.42
2022-09-25T12:17:21.228Z,35.53
2022-09-25T12:19:59.749Z,35.22
2022-09-25T12:22:44.585Z,34.09
2022-09-25T12:25:27.112Z,33.53
2022-09-25T12:28:03.419Z,33.62
2022-09-25T12:30:40.379Z,33.06
2022-09-25T12:33:23.686Z,32.92
2022-09-25T12:35:59.474Z,34.32
2022-09-25T12:38:39.950Z,33.69
2022-09-25T12:41:18.108Z,33.82
2022-09-25T12:43:54.371Z,33.77
2022-09-25T12:46:30.188Z,32.83
2022-09-25T12:49:05.810Z,33.02
2022-09-25T12:51:41.608Z,33.12
2022-09-25T12:54:25.981Z,32.88
2022-09-25T12:57:00.136Z,33.68
2022-09-25T12:59:36.373Z,33.85
2022-09-25T13:02:12.519Z,33.73
2022-09-25T13:04:59.165Z,34.17
2022-09-25T13:07:35.498Z,34.11
2022-09-25T13:10:19.346Z,33.09
2022-09-25T13:12:51.318Z,32.64
2022-09-25T13:15:25.164Z,33.03
2022-09-25T13:17:56.006Z,33.46
2022-09-25T13:20:49.067Z,33.62
2022-09-25T13:23:28.608Z,34.28
2022-09-25T13:26:03.143Z,35.38
2022-09-25T13:28:37.313Z,35.24
2022-09-25T13:31:11.269Z,34.66
2022-09-25T13:33:50.193Z,34.15
2022-09-25T13:36:34.453Z,34.39
2022-09-25T13:39:23.532Z,35.52
2022-09-25T13:41:59.821Z,34.69
2022-09-25T13:45:06.521Z,35.46
2022-09-25T13:48:01.720Z,35.68
2022-09-25T13:50:45.456Z,35.95
2022-09-25T13:53:28.083Z,35.97
2022-09-25T13:56:29.245Z,35.36
2022-09-25T13:59:36.319Z,35.80
2022-09-25T14:02:38.882Z,35.61
2022-09-25T14:05:09.049Z,35.97
2022-09-25T14:07:42.124Z,36.15
2022-09-25T14:10:13.098Z,36.61
2022-09-25T14:12:45.539Z,36.64
2022-09-25T14:15:24.144Z,36.97
2022-09-25T14:17:57.052Z,38.14
2022-09-25T14:20:34.549Z,37.84
2022-09-25T14:23:08.345Z,37.58
2022-09-25T14:25:40.855Z,37.52
2022-09-25T14:28:23.403Z,37.15
2022-09-25T14:31:18.115Z,37.54
2022-09-25T14:34:12.583Z,37.68
2022-09-25T14:37:00.637Z,38.07
2022-09-25T14:39:40.074Z,38.25
2022-09-25T14:42:38.189Z,39.10
2022-09-25T14:45:32.472Z,39.48
2022-09-25T14:48:07.118Z,39.73
2022-09-25T14:50:46.764Z,39.85
2022-09-25T14:53:27.876Z,40.10
2022-09-25T14:56:01.942Z,40.50
2022-09-25T14:58:34.397Z,40.78
2022-09-25T15:01:15.244Z,40.97
2022-09-25T15:03:50.192Z,41.40
2022-09-25T15:06:29.332Z,41.91
2022-09-25T15:09:01.966Z,42.40
2022-09-25T15:11:41.300Z,42.46
2022-09-25T15:14:12.962Z,43.09
2022-09-25T15:17:02.045Z,43.22
2022-09-25T15:19:36.142Z,43.48
2022-09-25T15:22:11.523Z,43.75
2022-09-25T15:24:49.665Z,44.06
2022-09-25T15:27:23.033Z,44.40
2022-09-25T15:29:53.305Z,44.90
2022-09-25T15:32:29.514Z,45.09
2022-09-25T15:35:18.468Z,45.81
2022-09-25T15:37:49.311Z,45.66
2022-09-25T15:40:25.818Z,45.79
2022-09-25T15:42:56.716Z,46.17
2022-09-25T15:45:38.232Z,46.08
2022-09-25T15:48:30.233Z,46.02
2022-09-25T15:51:04.049Z,46.18
2022-09-25T15:53:36.382Z,45.31
2022-09-25T15:56:17.365Z,45.00
2022-09-25T15:58:50.481Z,45.52
2022-09-25T16:01:42.313Z,46.83
2022-09-25T16:04:39.353Z,47.71
2022-09-25T16:07:34.080Z,49.02
2022-09-25T16:10:20.529Z,49.42
2022-09-25T16:12:54.503Z,49.76
2022-09-25T16:15:51.008Z,50.30
2022-09-25T16:18:42.039Z,50.72
2022-09-25T16:21:22.630Z,51.01
2022-09-25T16:23:56.686Z,51.49
2022-09-25T16:26:39.039Z,51.78
2022-09-25T16:29:22.945Z,51.59
2022-09-25T16:31:57.408Z,52.27
2022-09-25T16:34:30.321Z,52.28
2022-09-25T16:37:04.391Z,52.70
2022-09-25T16:39:37.389Z,52.94
2022-09-25T16:42:27.315Z,53.29
2022-09-25T16:45:05.187Z,53.41
2022-09-25T16:47:37.312Z,53.95
2022-09-25T16:50:09.996Z,54.42
2022-09-25T16:52:43.416Z,54.34
2022-09-25T16:55:24.411Z,54.81
2022-09-25T16:57:55.621Z,54.95
2022-09-25T17:00:28.677Z,55.01
2022-09-25T17:02:59.057Z,55.46
2022-09-25T17:05:32.088Z,55.61
2022-09-25T17:08:18.226Z,55.76
2022-09-25T17:10:52.420Z,55.70
2022-09-25T17:13:28.462Z,56.04
2022-09-25T17:15:58.757Z,55.97
2022-09-25T17:18:29.012Z,56.52
2022-09-25T17:21:02.706Z,56.55
2022-09-25T17:23:36.996Z,56.62
2022-09-25T17:26:17.891Z,57.32
2022-09-25T17:28:48.184Z,57.65
2022-09-25T17:31:24.214Z,57.77
2022-09-25T17:33:57.703Z,58.70
2022-09-25T17:36:27.720Z,58.31
2022-09-25T17:38:57.741Z,58.40
2022-09-25T17:41:34.769Z,58.58
2022-09-25T17:44:06.427Z,58.73
2022-09-25T17:46:36.578Z,59.06
2022-09-25T17:49:06.847Z,59.12
2022-09-25T17:51:37.159Z,59.39
2022-09-25T17:54:11.499Z,59.61
2022-09-25T17:56:45.549Z,60.28
2022-09-25T17:59:15.907Z,60.40
2022-09-25T18:01:47.295Z,60.78
2022-09-25T18:04:22.514Z,61.02
2022-09-25T18:06:55.924Z,61.14
2022-09-25T18:09:26.864Z,61.47
2022-09-25T18:11:58.321Z,61.90
2022-09-25T18:14:28.405Z,61.74
2022-09-25T18:16:58.878Z,62.36
2022-09-25T18:19:49.375Z,62.41
2022-09-25T18:22:22.080Z,63.39
2022-09-25T18:25:05.877Z,63.38
2022-09-25T18:27:41.855Z,63.54
2022-09-25T18:30:19.224Z,63.63
2022-09-25T18:32:49.821Z,64.92
2022-09-25T18:35:23.942Z,64.55
2022-09-25T18:37:56.701Z,64.42
2022-09-25T18:40:27.436Z,65.08
2022-09-25T18:43:06.844Z,65.26
2022-09-25T18:45:40.070Z,65.86
2022-09-25T18:48:12.138Z,65.97
2022-09-25T18:50:42.156Z,66.28
2022-09-25T18:53:12.453Z,67.08
2022-09-25T18:55:43.982Z,66.99
2022-09-25T18:58:15.462Z,66.54
2022-09-25T19:00:49.141Z,66.72
2022-09-25T19:03:19.346Z,66.13
2022-09-25T19:06:01.085Z,66.40
2022-09-25T19:08:34.622Z,66.93
2022-09-25T19:11:04.877Z,66.87
2022-09-25T19:13:38.260Z,67.21
2022-09-25T19:16:09.325Z,67.78
2022-09-25T19:18:39.573Z,68.10
2022-09-25T19:21:15.015Z,67.93
2022-09-25T19:23:49.324Z,68.22
2022-09-25T19:26:23.712Z,68.24
2022-09-25T19:28:55.920Z,68.00
2022-09-25T19:31:27.526Z,68.57
2022-09-25T19:33:58.263Z,68.31
2022-09-25T19:36:33.526Z,68.88
2022-09-25T19:39:04.505Z,69.78
2022-09-25T19:41:36.831Z,69.86
2022-09-25T19:44:13.649Z,69.49
2022-09-25T19:46:44.587Z,69.75
2022-09-25T19:49:16.334Z,69.86
2022-09-25T19:51:48.735Z,69.92
2022-09-25T19:54:18.808Z,70.28
2022-09-25T19:56:49.962Z,70.70
2022-09-25T19:59:21.567Z,70.33
2022-09-25T20:01:52.495Z,70.20
2022-09-25T20:04:25.204Z,70.58
2022-09-25T20:06:55.782Z,71.17
2022-09-25T20:09:26.364Z,71.17
2022-09-25T20:11:58.360Z,71.40
2022-09-25T20:14:29.745Z,70.82
2022-09-25T20:17:02.250Z,71.17
2022-09-25T20:19:33.573Z,70.93
2022-09-25T20:22:03.712Z,70.84
2022-09-25T20:24:34.049Z,70.98
2022-09-25T20:27:04.375Z,71.15
2022-09-25T20:29:38.386Z,71.77
2022-09-25T20:32:08.457Z,71.50
2022-09-25T20:34:38.635Z,71.48
2022-09-25T20:37:10.785Z,71.66
2022-09-25T20:39:41.804Z,72.13
2022-09-25T20:42:11.858Z,72.12
2022-09-25T20:44:43.184Z,72.64
2022-09-25T20:47:13.120Z,72.26
2022-09-25T20:49:44.021Z,72.96
2022-09-25T20:52:14.198Z,72.31
2022-09-25T20:54:46.840Z,72.52
2022-09-25T20:57:17.076Z,72.79
2022-09-25T20:59:48.530Z,72.73
2022-09-25T21:02:18.854Z,72.73
2022-09-25T21:04:51.195Z,72.29
2022-09-25T21:07:21.164Z,72.88
2022-09-25T21:09:51.162Z,72.71
2022-09-25T21:12:22.409Z,72.81
2022-09-25T21:14:53.701Z,73.06
2022-09-25T21:17:23.890Z,74.25
2022-09-25T21:19:54.594Z,74.09
2022-09-25T21:22:24.617Z,74.43
2022-09-25T21:24:57.258Z,74.75
2022-09-25T21:27:27.224Z,74.55
2022-09-25T21:29:58.571Z,74.62
2022-09-25T21:32:30.263Z,74.13
2022-09-25T21:35:00.256Z,75.03
2022-09-25T21:37:30.456Z,75.33
2022-09-25T21:40:00.414Z,75.51
2022-09-25T21:42:31.223Z,75.26
2022-09-25T21:45:05.111Z,75.84
2022-09-25T21:47:35.104Z,75.49
2022-09-25T21:50:05.825Z,74.65
2022-09-25T21:52:35.771Z,74.37
2022-09-25T21:55:06.592Z,74.01
2022-09-25T21:57:36.849Z,74.08
2022-09-25T22:00:10.001Z,74.65
2022-09-25T22:02:40.076Z,75.08
2022-09-25T22:05:11.427Z,74.50
2022-09-25T22:07:42.570Z,74.13
2022-09-25T22:10:12.414Z,74.53
2022-09-25T22:12:42.259Z,75.58
2022-09-25T22:15:13.861Z,75.17
2022-09-25T22:17:43.707Z,75.39
2022-09-25T22:20:13.633Z,75.09
2022-09-25T22:22:43.480Z,74.93
2022-09-25T22:25:13.331Z,75.28
2022-09-25T22:27:43.091Z,74.43
2022-09-25T22:30:14.602Z,74.53
2022-09-25T22:32:45.148Z,74.48
2022-09-25T22:35:15.028Z,74.49
2022-09-25T22:37:44.813Z,73.76
2022-09-25T22:40:14.812Z,74.90
2022-09-25T22:42:44.643Z,74.85
2022-09-25T22:45:15.954Z,74.70
2022-09-25T22:47:45.756Z,75.17
2022-09-25T22:50:15.705Z,74.52
2022-09-25T22:52:45.556Z,74.70
2022-09-25T22:55:15.506Z,74.20
2022-09-25T22:57:45.345Z,74.07
2022-09-25T23:00:16.781Z,74.23
2022-09-25T23:02:46.847Z,74.86
2022-09-25T23:05:16.784Z,74.03
2022-09-25T23:07:46.608Z,73.55
2022-09-25T23:10:16.470Z,73.23
2022-09-25T23:12:46.296Z,73.83
2022-09-25T23:15:17.592Z,73.59
2022-09-25T23:17:47.321Z,73.50
2022-09-25T23:20:17.318Z,73.58
2022-09-25T23:22:47.239Z,73.24
2022-09-25T23:25:17.850Z,72.56
2022-09-25T23:27:47.600Z,72.73
2022-09-25T23:30:19.154Z,73.65
2022-09-25T23:32:48.901Z,72.82
2022-09-25T23:35:19.009Z,72.78
2022-09-25T23:37:48.792Z,72.90
2022-09-25T23:40:18.775Z,72.49
2022-09-25T23:42:50.300Z,72.53
2022-09-25T23:45:21.507Z,72.95
2022-09-25T23:47:51.246Z,72.70
2022-09-25T23:50:21.038Z,72.14
2022-09-25T23:52:52.301Z,72.78
2022-09-25T23:55:22.128Z,72.89
2022-09-25T23:57:51.990Z,72.89
